Kezdőlap
METAR-TAF:

METAR-TAF

Repülőterek :

Kimball Municipal Airport (Robert E. Arraj Field)

Kimball, Nebraska, Amerikai Egyesült Államok

földrajzi szélesség: 41-11N, földrajzi hosszúság: 103-40W, magasság: 1501 m

Jelenlegi meteorológiai megfigyelések

A jelentés 26 perccel ezelõtt készült, 07:15 UTC
Nyugati szél 8 kt
Hőmérséklet 23°C
Páratartalom 38%
Légköri nyomás 1015 hPa
Látótávolság: 16.1 km
Derült ég

METAR: KIBM 130715Z AUTO 27008KT 10SM CLR 23/08 A2996 RMK AO2 T02250082

Idő: 01:41 (07:41 UTC)


TAF: hiányzik

Meteorológiai megfigyelések és előrejelzések több, mint 4000 repülőtéren (METAR és TAF jelentéseket).

A térképen piros és sárga pontok jelzik az elérhető meteorológiai állomásokat.

Mozgassa az egeret a pont fölött, hogy megjelenjen az állomás neve.

Azután kattintson az időjárási megfigyelések és előrejelzések megtekintéséhez.

A térkép megváltoztatása: kattintson a fekete keresztel jelölt zöld gombra ráközelítéshez, a vonallal jelölt zöld gombra távolításhoz, vagy a zöld nyilakra a szomszédos térképek eléréséhez.


METAR-TAF: